Tiempo atmosférico en la estación meteorológica de Morales del Toro, Zamora (710 m.)



Fecha
DESCASC
Temp. máxima en grados centígrados (hora)
DESCASC
Temp. mínima en grados centígrados (hora)
DESCASC
Temp. media en grados centígrados
DESCASC
Racha de viento máxima en m/sg (hora)
DESCASC
Velocidad máxima media en intervalos de 10 minutos(hora)
DESCASC
Precipitaciones diarias en mm
DESCASC
Precipitaciones de 00:00 a 06:00 en mm
DESCASC
Precipitaciones de 06:00 a 12:00 en mm
DESCASC
Precipitaciones de 12:00 a 18:00 en mm
DESCASC
Precipitaciones de 18:00 a 24:00 en mm
DESCASC
22-11-2020 17.6 (17:00) -0.9 (08:20) 8.4 3.89 (04:50) 3.33 (22:50) 0 0 0 0 0
21-11-2020 15.3 (16:10) 0.2 (07:40) 7.8 4.72 (01:10) 3.06 (01:20) 0 0 0 0 0
20-11-2020 14.5 (16:20) 2.6 (08:20) 8.5 11.11 (03:20) 8.06 (03:20) 0 0 0 0 0
19-11-2020 18.5 (16:10) 4.7 (00:00) 11.6 7.5 (22:50) 6.11 (23:40) 0 0 0 0 0
18-11-2020 21.3 (15:20) 3.3 (00:00) 12.3 3.89 (21:00) 3.33 (21:10) 0 0 0 0 0
17-11-2020 14.3 (16:30) 3.1 (00:00) 8.7 3.89 (09:20) 2.78 (00:10) 0.2 0 0.2 0 0
16-11-2020 16.9 (16:50) 6.2 (00:00) 11.5 5.28 (02:10) 3.33 (02:10) 0.2 0.2 0 0 0
15-11-2020 17.4 (14:50) 11.2 (00:00) 14.3 13.61 (14:20) 10 (14:20) 1.8 1.2 0 0 0.6
14-11-2020 17.5 (14:30) 5.7 (00:00) 11.6 7.78 (21:00) 3.89 (21:00) 0.2 0.2 0 0 0
13-11-2020 11.1 (16:50) 4.9 (00:00) 8 5.83 (03:10) 4.17 (03:30) 0.2 0 0.2 0 0
12-11-2020 15.2 (12:20) 4 (00:00) 9.6 5.56 (16:40) 3.89 (16:40) 0 0 0 0 0
11-11-2020 11.2 (15:10) 6.8 (00:00) 9 4.44 (07:20) 3.06 (07:30) 0 0 0 0 0
10-11-2020 9.3 (19:20) 5.8 (00:00) 7.6 3.61 (21:50) 2.22 (23:30) 0.2 0 0.2 0 0
09-11-2020 15.9 (12:50) 6.9 (00:00) 11.4 6.39 (13:20) 4.72 (16:30) 4.2 3.6 0.6 0 0
08-11-2020 15.9 (12:40) 6.6 (00:00) 11.2 13.89 (16:20) 7.5 (13:20) 8.4 0 0 2 6.4
07-11-2020 17 (16:00) 7.8 (00:00) 12.4 11.11 (16:20) 8.33 (16:40) 2.2 1.8 0.4 0 0
06-11-2020 17.4 (15:10) 9.5 (00:00) 13.4 13.33 (16:10) 8.61 (13:20) 5.4 0 0 0 5.4
05-11-2020 13.1 (15:20) 5.8 (00:00) 9.5 17.22 (04:10) 12.5 (01:50) 3.8 0 0 0.2 3.6
04-11-2020 11.2 (13:30) 2.4 (00:00) 6.8 18.33 (21:50) 14.17 (21:40) 1.6 0 0 1.4 0.2
03-11-2020 16 (15:40) 4.3 (00:00) 10.2 10.56 (16:40) 7.78 (17:10) 0 0 0 0 0
02-11-2020 20.4 (13:40) 9.9 (00:00) 15.1 6.39 (03:10) 4.17 (12:20) 0 0 0 0 0
01-11-2020 20.9 (15:10) 6.5 (00:00) 13.7 5.83 (15:30) 3.89 (15:30) 0 0 0 0 0
31-10-2020 20.7 (15:00) 4.1 (00:00) 12.4 6.67 (15:00) 4.72 (16:10) 0 0 0 0 0
30-10-2020 22.2 (16:50) 3 (00:00) 12.6 3.33 (20:10) 2.5 (20:10) 0.2 0 0.2 0 0
29-10-2020 18.2 (15:30) 3.6 (00:00) 10.9 5 (22:30) 4.17 (21:50) 0 0 0 0 0
28-10-2020 17.1 (14:40) 7.6 (00:00) 12.4 7.78 (15:30) 5.28 (15:10) 0.2 0.2 0 0 0

Gráficas

Temp. máximas Temp. mínimas Temp. medias Precipitaciones Rachas de viento máximas Velocidades máximas media en intervalos de 10 minutos

Datos horarios

Fecha y hora oficial Temperatura (ºC) Velocidad del viento (km/h) Dirección del viento Racha (km/h) Dirección de racha Precipitación (mm) Presión (hPa) Tendencia (hPa) Humedad (%)
2020-11-26 23:00:00 8.4 3 Nordeste 21 Este 1.6 -- -- 96
2020-11-26 22:00:00 8.8 12 Este 36 Este 1 -- -- 94
2020-11-26 21:00:00 9.9 24 Este 37 Nordeste 0.2 -- -- 85
2020-11-26 20:00:00 11 26 Nordeste 41 Este 0 -- -- 75
2020-11-26 19:00:00 11.4 29 Nordeste 41 Nordeste 0 -- -- 74
2020-11-26 18:00:00 11.1 27 Nordeste 34 Nordeste 0 -- -- 74
2020-11-26 17:00:00 11.8 24 Este 39 Este 0 -- -- 71
2020-11-26 16:00:00 12.7 21 Este 30 Este 0 -- -- 72
2020-11-26 15:00:00 11.9 12 Nordeste 24 Este 0 -- -- 73
2020-11-26 14:00:00 12.3 19 Este 25 Este 0 -- -- 70
2020-11-26 13:00:00 10.9 19 Este 28 Este 0 -- -- 75
2020-11-26 12:00:00 10.6 19 Este 26 Este 0.2 -- -- 79
2020-11-26 11:00:00 9.6 18 Este 38 Este 0 -- -- 84
2020-11-26 10:00:00 8.9 23 Este 33 Este 0 -- -- 83
2020-11-26 09:00:00 8.6 25 Este 40 Este 0 -- -- 81
2020-11-26 08:00:00 8.1 27 Este 39 Este 0 -- -- 83
2020-11-26 07:00:00 8.4 30 Este 41 Este 0 -- -- 83
2020-11-26 06:00:00 9 31 Este 41 Este 0 -- -- 84
2020-11-26 05:00:00 8.3 27 Este 35 Este 0 -- -- 87
2020-11-26 04:00:00 8.8 18 Este 31 Este 0 -- -- 86
2020-11-26 03:00:00 9.4 18 Este 30 Este 0 -- -- 83
2020-11-26 02:00:00 9.1 19 Este 28 Sudeste 0 -- -- 85
2020-11-26 01:00:00 8.6 17 Este 29 Este 0 -- -- 87
2020-11-26 00:00:00 8.2 21 Este 31 Este 0 -- -- 85
2020-11-25 23:00:00 8.6 17 Este 30 Este 0 -- -- 83
2020-11-25 22:00:00 8.1 16 Este 30 Este 0 -- -- 83
2020-11-25 21:00:00 8.8 20 Este 29 Este 0 -- -- 82
2020-11-25 20:00:00 9 23 Este 31 Este 0 -- -- 83
2020-11-25 19:00:00 8.8 19 Este 34 Este 0 -- -- 84
2020-11-25 18:00:00 9 19 Este 26 Este 0.2 -- -- 85
2020-11-25 17:00:00 9.6 12 Este 17 Este 0.2 -- -- 89
2020-11-25 16:00:00 9.9 8 Norte 10 Norte 0 -- -- 88
2020-11-25 15:00:00 9.7 7 Norte 12 Nordeste 0 -- -- 86
2020-11-25 14:00:00 8.5 6 Nordeste 13 Este 0.4 -- -- 90
2020-11-25 13:00:00 7.4 10 Este 20 Este 0.8 -- -- 89
2020-11-25 12:00:00 7 17 Este 30 Este 0 -- -- 83
2020-11-25 11:00:00 6.2 21 Este 29 Este 0 -- -- 86
2020-11-25 10:00:00 5.7 14 Este 21 Este 0 -- -- 90
2020-11-25 09:00:00 4.1 11 Este 20 Este 0 -- -- 92
2020-11-25 08:00:00 3.5 14 Este 23 Este 0 -- -- 94
2020-11-25 07:00:00 3 12 Este 18 Este 0 -- -- 96
2020-11-25 06:00:00 2.2 10 Este 17 Este 0 -- -- 98
2020-11-25 05:00:00 2.3 9 Este 16 Este 0 -- -- 98
2020-11-25 04:00:00 2.6 9 Este 13 Este 0 -- -- 98
2020-11-25 03:00:00 2.9 4 Nordeste 13 Este 0 -- -- 97
2020-11-25 02:00:00 3.3 8 Este 15 Este 0 -- -- 95
2020-11-25 01:00:00 3.6 5 Este 13 Sudeste 0 -- -- 95
2020-11-25 00:00:00 4.3 10 Este 14 Este 0 -- -- 94
2020-11-24 23:00:00 6 5 Sur 9 Sudoeste 0 -- -- 90
2020-11-24 22:00:00 6 5 Sur 11 Sur 0 -- -- 91
2020-11-24 21:00:00 5.3 4 Este 8 Este 0 -- -- 92
2020-11-24 20:00:00 6.9 4 Sudeste 6 Este 0 -- -- 90
2020-11-24 19:00:00 8.3 0 Calma 3 Noroeste 0 -- -- 86
2020-11-24 18:00:00 10.3 0 Calma 13 Oeste 0 -- -- 77
2020-11-24 17:00:00 11.6 6 Oeste 18 Oeste 0 -- -- 74
2020-11-24 16:00:00 12.1 12 Oeste 21 Sudoeste 0 -- -- 71
2020-11-24 15:00:00 13.2 9 Sudoeste 21 Sudoeste 0 -- -- 66
2020-11-24 14:00:00 12.8 10 Sudoeste 15 Oeste 0 -- -- 67
2020-11-24 13:00:00 10.6 5 Sudoeste 9 Oeste 0 -- -- 70
2020-11-24 12:00:00 9.4 4 Sudeste 8 Este 0 -- -- 70
2020-11-24 11:00:00 5.6 6 Este 13 Este 0 -- -- 83
2020-11-24 10:00:00 2 8 Este 14 Este 0 -- -- 90
2020-11-24 09:00:00 0.6 9 Este 14 Este 0 -- -- 93
2020-11-24 08:00:00 0.5 8 Este 14 Este 0 -- -- 91
2020-11-24 07:00:00 0.5 7 Este 11 Este 0 -- -- 95
2020-11-24 06:00:00 -0.2 4 Este 5 Este 0 -- -- 96
2020-11-24 05:00:00 -0.2 5 Nordeste 8 Nordeste 0 -- -- 95
2020-11-24 04:00:00 0.2 5 Nordeste 7 Nordeste 0 -- -- 95
2020-11-24 03:00:00 0.8 2 Nordeste 7 Nordeste 0 -- -- 94
2020-11-24 02:00:00 1.2 6 Nordeste 7 Norte 0 -- -- 93
2020-11-24 01:00:00 2.1 6 Norte 9 Nordeste 0 -- -- 93
2020-11-24 00:00:00 2.8 8 Nordeste 11 Nordeste 0 -- -- 91
2020-11-23 23:00:00 4.3 8 Nordeste 10 Nordeste 0 -- -- 89
2020-11-23 22:00:00 5.2 8 Norte 10 Norte 0 -- -- 86
2020-11-23 21:00:00 6.4 9 Norte 11 Norte 0 -- -- 84
2020-11-23 20:00:00 7.4 9 Norte 10 Norte 0 -- -- 80
2020-11-23 19:00:00 8.9 2 Norte 5 Norte 0 -- -- 73
2020-11-23 18:00:00 10.5 6 Norte 11 Oeste 0 -- -- 70
2020-11-23 17:00:00 14.9 7 Oeste 10 Oeste 0 -- -- 57
2020-11-23 16:00:00 15.7 5 Sudoeste 12 Sudoeste 0 -- -- 53
2020-11-23 15:00:00 14.6 5 Oeste 9 Sudoeste 0 -- -- 57
2020-11-23 14:00:00 14.8 4 Nordeste 10 Nordeste 0 -- -- 53
2020-11-23 13:00:00 12.9 4 Noroeste 9 Noroeste 0 -- -- 63
2020-11-23 12:00:00 9.2 5 Oeste 9 Oeste 0 -- -- 74
2020-11-23 11:00:00 5.5 4 Sudoeste 6 Sudoeste 0 -- -- 81
2020-11-23 10:00:00 3.6 0 Calma 3 Nordeste 0 -- -- 89
2020-11-23 09:00:00 0.4 2 Norte 6 Norte 0 -- -- 95
2020-11-23 08:00:00 -0.3 0 Calma 6 Norte 0 -- -- 95
2020-11-23 07:00:00 0.1 2 Nordeste 9 Nordeste 0 -- -- 95
2020-11-23 06:00:00 0.6 7 Nordeste 9 Nordeste 0 -- -- 92
2020-11-23 05:00:00 0.4 8 Norte 11 Norte 0 -- -- 94
2020-11-23 04:00:00 0.6 5 Nordeste 10 Nordeste 0 -- -- 93
2020-11-23 03:00:00 1.3 9 Nordeste 12 Este 0 -- -- 92
2020-11-23 02:00:00 1.4 8 Nordeste 10 Nordeste 0 -- -- 94
2020-11-23 01:00:00 2.7 4 Nordeste 9 Este 0 -- -- 89
2020-11-23 00:00:00 2.8 7 Nordeste 12 Norte 0 -- -- 90
2020-11-22 23:00:00 3.7 12 Norte 14 Norte 0 -- -- 87
2020-11-22 22:00:00 4.4 8 Nordeste 10 Nordeste 0 -- -- 87
2020-11-22 21:00:00 5.5 10 Nordeste 12 Norte 0 -- -- 85
2020-11-22 20:00:00 6.7 9 Norte 11 Norte 0 -- -- 81
2020-11-22 19:00:00 9.5 4 Nordeste 5 Nordeste 0 -- -- 69
2020-11-22 18:00:00 12.7 2 Sudeste 4 Sudeste 0 -- -- 56
2020-11-22 17:00:00 17.6 0 Calma 5 Sudoeste 0 -- -- 44
2020-11-22 16:00:00 16.6 3 Sudoeste 7 Oeste 0 -- -- 47
2020-11-22 15:00:00 15.2 3 Oeste 8 Sudoeste 0 -- -- 50
2020-11-22 14:00:00 14 4 Sudoeste 8 Este 0 -- -- 50
2020-11-22 13:00:00 13.2 2 Este 8 Este 0 -- -- 52
2020-11-22 12:00:00 10.1 6 Este 13 Este 0 -- -- 63
2020-11-22 11:00:00 6.8 10 Este 13 Sudeste 0 -- -- 74
2020-11-22 10:00:00 3.5 7 Este 11 Este 0 -- -- 86
2020-11-22 09:00:00 0.2 3 Nordeste 4 Norte 0 -- -- 96
2020-11-22 08:00:00 -0.5 0 Calma 2 Sudoeste 0 -- -- 95
2020-11-22 07:00:00 -0.4 0 Calma 8 Este 0 -- -- 95
2020-11-22 06:00:00 0.4 6 Este 11 Este 0 -- -- 95
2020-11-22 05:00:00 0.1 7 Nordeste 14 Este 0 -- -- 90
2020-11-22 04:00:00 0.5 2 Nordeste 8 Norte 0 -- -- 91
2020-11-22 03:00:00 1.5 6 Norte 8 Nordeste 0 -- -- 88
2020-11-22 02:00:00 1.7 3 Noroeste 9 Norte 0 -- -- 90
2020-11-22 01:00:00 1.6 6 Norte 9 Nordeste 0 -- -- 91
2020-11-22 00:00:00 2.3 7 Nordeste 9 Nordeste 0 -- -- 88
2020-11-21 23:00:00 3.3 7 Nordeste 11 Nordeste 0 -- -- 86
2020-11-21 22:00:00 4.3 10 Nordeste 11 Nordeste 0 -- -- 84
2020-11-21 21:00:00 5 9 Nordeste 13 Nordeste 0 -- -- 84
2020-11-21 20:00:00 7.5 3 Nordeste 8 Norte 0 -- -- 68
2020-11-21 19:00:00 9.3 3 Sur 5 Sudoeste 0 -- -- 59
2020-11-21 18:00:00 11.2 4 Sur 10 Sudoeste 0 -- -- 57
2020-11-21 17:00:00 14.8 6 Sudoeste 11 Sudoeste 0 -- -- 47
2020-11-21 16:00:00 15.2 5 Sudoeste 10 Sudoeste 0 -- -- 44
2020-11-21 15:00:00 14.4 6 Oeste 13 Oeste 0 -- -- 40
2020-11-21 14:00:00 13.9 4 Sudoeste 10 Sudoeste 0 -- -- 41
2020-11-21 13:00:00 12.5 4 Sudoeste 9 Sur 0 -- -- 44
2020-11-21 12:00:00 10.6 4 Sudoeste 8 Sudoeste 0 -- -- 51
2020-11-21 11:00:00 8.5 2 Este 10 Nordeste 0 -- -- 54
2020-11-21 10:00:00 3.8 5 Norte 9 Norte 0 -- -- 73
2020-11-21 09:00:00 0.9 4 Nordeste 9 Noroeste 0 -- -- 87
2020-11-21 08:00:00 0.3 5 Norte 9 Noroeste 0 -- -- 87
2020-11-21 07:00:00 1.6 0 Calma 6 Norte 0 -- -- 81
2020-11-21 06:00:00 1.8 0 Calma 6 Norte 0 -- -- 80
2020-11-21 05:00:00 2.6 0 Calma 9 Nordeste 0 -- -- 75
2020-11-21 04:00:00 2 0 Calma 7 Nordeste 0 -- -- 82
2020-11-21 03:00:00 1.8 0 Calma 12 Norte 0 -- -- 86
2020-11-21 02:00:00 3.1 5 Nordeste 17 Nordeste 0 -- -- 81
2020-11-21 01:00:00 2.9 3 Este 14 Norte 0 -- -- 89
2020-11-21 00:00:00 4 4 Nordeste 8 Este 0 -- -- 84
2020-11-20 23:00:00 4.7 4 Nordeste 20 Nordeste 0 -- -- 85
2020-11-20 22:00:00 5.9 9 Nordeste 23 Nordeste 0 -- -- 78
2020-11-20 21:00:00 6.5 11 Nordeste 15 Nordeste 0 -- -- 77
2020-11-20 20:00:00 6.1 6 Nordeste 10 Norte 0 -- -- 84
2020-11-20 19:00:00 7.2 9 Norte 12 Norte 0 -- -- 81
2020-11-20 18:00:00 10.4 9 Nordeste 13 Nordeste 0 -- -- 64
2020-11-20 17:00:00 13.8 10 Nordeste 17 Nordeste 0 -- -- 50
2020-11-20 16:00:00 14.3 13 Nordeste 24 Nordeste 0 -- -- 48
2020-11-20 15:00:00 14.4 10 Nordeste 22 Nordeste 0 -- -- 51
2020-11-20 14:00:00 13 14 Nordeste 23 Nordeste 0 -- -- 55
2020-11-20 13:00:00 11.9 9 Nordeste 20 Nordeste 0 -- -- 66
2020-11-20 12:00:00 10.2 12 Nordeste 24 Nordeste 0 -- -- 68
2020-11-20 11:00:00 8.3 18 Nordeste 23 Nordeste 0 -- -- 77
2020-11-20 10:00:00 5.3 5 Norte 10 Nordeste 0 -- -- 88
2020-11-20 09:00:00 3.2 8 Norte 12 Norte 0 -- -- 95
2020-11-20 08:00:00 3.2 8 Norte 15 Nordeste 0 -- -- 94
2020-11-20 07:00:00 4.3 13 Nordeste 16 Nordeste 0 -- -- 90
2020-11-20 06:00:00 4.1 9 Nordeste 18 Nordeste 0 -- -- 93
2020-11-20 05:00:00 5.6 18 Nordeste 23 Este 0 -- -- 88
2020-11-20 04:00:00 6.3 17 Nordeste 40 Nordeste 0 -- -- 87
2020-11-20 03:00:00 7.3 22 Nordeste 35 Nordeste 0 -- -- 84
2020-11-20 02:00:00 7.3 17 Este 26 Este 0 -- -- 91
2020-11-20 01:00:00 7.4 22 Nordeste 24 Nordeste 0 -- -- 92
2020-11-20 00:00:00 7.6 18 Nordeste 26 Nordeste 0 -- -- 94
2020-11-19 23:00:00 8.9 21 Nordeste 27 Nordeste 0 -- -- 90
2020-11-19 22:00:00 9.2 20 Nordeste 24 Nordeste 0 -- -- 91
2020-11-19 21:00:00 10.3 15 Nordeste 23 Nordeste 0 -- -- 89
2020-11-19 20:00:00 9.7 13 Nordeste 16 Nordeste 0 -- -- 94
2020-11-19 19:00:00 11.6 13 Nordeste 16 Nordeste 0 -- -- 90
2020-11-19 18:00:00 14.7 12 Norte 15 Norte 0 -- -- 77
2020-11-19 17:00:00 18.2 9 Noroeste 14 Noroeste 0 -- -- 68
2020-11-19 16:00:00 18.2 9 Sudoeste 14 Sudoeste 0 -- -- 73
2020-11-19 15:00:00 17.6 10 Sudoeste 15 Sudoeste 0 -- -- 74
2020-11-19 14:00:00 17.6 7 Sudoeste 12 Sudoeste 0 -- -- 72
2020-11-19 13:00:00 15.2 6 Oeste 11 Sudoeste 0 -- -- 78
2020-11-19 12:00:00 13.2 6 Sudoeste 10 Sudoeste 0 -- -- 83
2020-11-19 11:00:00 10.4 5 Sudoeste 9 Sudoeste 0 -- -- 91
2020-11-19 10:00:00 7 3 Sudoeste 6 Sudeste 0 -- -- 98
2020-11-19 09:00:00 5.2 0 Calma 8 Nordeste 0 -- -- 99
2020-11-19 08:00:00 4.9 3 Norte 7 Nordeste 0 -- -- 99
2020-11-19 07:00:00 5.5 2 Norte 10 Norte 0 -- -- 100
2020-11-19 06:00:00 5.4 7 Nordeste 9 Norte 0 -- -- 97
2020-11-19 05:00:00 6.4 2 Norte 8 Norte 0 -- -- 98
2020-11-19 04:00:00 6.9 5 Nordeste 11 Norte 0 -- -- 98
2020-11-19 03:00:00 6.7 6 Nordeste 8 Nordeste 0 -- -- 97
2020-11-19 02:00:00 7.5 0 Calma 6 Nordeste 0 -- -- 96
2020-11-19 01:00:00 7.8 6 Norte 9 Nordeste 0 -- -- 95
2020-11-19 00:00:00 8.6 6 Norte 10 Noroeste 0 -- -- 93
2020-11-18 23:00:00 10.2 10 Norte 13 Nordeste 0 -- -- 89
2020-11-18 22:00:00 10.1 10 Norte 13 Norte 0 -- -- 91
2020-11-18 21:00:00 10.4 11 Norte 14 Norte 0 -- -- 90
2020-11-18 20:00:00 11.7 8 Norte 12 Norte 0 -- -- 87
2020-11-18 19:00:00 13.4 6 Norte 9 Noroeste 0 -- -- 80
2020-11-18 18:00:00 16.2 0 Calma 3 Sur 0 -- -- 66
2020-11-18 17:00:00 19.7 4 Sudeste 9 Este 0 -- -- 55
2020-11-18 16:00:00 21 3 Este 7 Nordeste 0 -- -- 54
2020-11-18 15:00:00 19.9 3 Norte 11 Nordeste 0 -- -- 55
2020-11-18 14:00:00 18.9 4 Nordeste 9 Norte 0 -- -- 60
2020-11-18 13:00:00 18.2 3 Este 10 Sudeste 0 -- -- 63
2020-11-18 12:00:00 16.1 5 Este 10 Este 0 -- -- 70
2020-11-18 11:00:00 12.1 7 Este 13 Este 0 -- -- 83
2020-11-18 10:00:00 8.3 10 Este 13 Este 0 -- -- 100
2020-11-18 09:00:00 4.8 3 Nordeste 8 Nordeste 0 -- -- 100
2020-11-18 08:00:00 3.7 7 Nordeste 12 Nordeste 0 -- -- 100
2020-11-18 07:00:00 3.3 9 Nordeste 11 Nordeste 0 -- -- 100
2020-11-18 06:00:00 3.4 6 Nordeste 9 Nordeste 0 -- -- 100
2020-11-18 05:00:00 3.7 6 Nordeste 10 Nordeste 0 -- -- 100
2020-11-18 04:00:00 4.2 6 Nordeste 9 Este 0 -- -- 100
2020-11-18 03:00:00 4.4 6 Nordeste 9 Nordeste 0 -- -- 100
2020-11-18 02:00:00 5.2 5 Nordeste 10 Este 0 -- -- 100
2020-11-18 01:00:00 4.3 4 Nordeste 9 Nordeste 0 -- -- 100
2020-11-18 00:00:00 4.9 3 Este 8 Nordeste 0 -- -- 99
2020-11-17 23:00:00 6 6 Nordeste 7 Nordeste 0 -- -- 100
2020-11-17 22:00:00 6.6 0 Calma -- -- 0 -- -- 100
2020-11-17 21:00:00 6.7 0 Calma -- -- 0 -- -- 99
2020-11-17 20:00:00 7.4 0 Calma -- -- 0 -- -- 97
2020-11-17 19:00:00 9.4 0 Calma -- -- 0 -- -- 97
2020-11-17 18:00:00 11.1 0 Calma 4 Oeste 0 -- -- 89
2020-11-17 17:00:00 13.1 3 Sudoeste 6 Sudoeste 0 -- -- 84
2020-11-17 16:00:00 10.7 0 Calma 9 Sur 0 -- -- 97
2020-11-17 15:00:00 11.2 4 Sudeste 8 Sudeste 0 -- -- 96
2020-11-17 14:00:00 9.5 5 Este 8 Este 0 -- -- 98
2020-11-17 13:00:00 8.6 0 Calma 7 Este 0 -- -- 97
2020-11-17 12:00:00 7.4 4 Sudeste 10 Este 0 -- -- 99
2020-11-17 11:00:00 6.2 5 Este 10 Este 0 -- -- 99
2020-11-17 10:00:00 5 5 Este 14 Este 0 -- -- 99
2020-11-17 09:00:00 4.6 5 Este 10 Este 0.2 -- -- 99
2020-11-17 08:00:00 4.5 0 Calma 3 Sudoeste 0 -- -- 99
2020-11-17 07:00:00 3.6 3 Sudoeste 4 Sudoeste 0 -- -- 100
2020-11-17 06:00:00 3.4 0 Calma 4 Nordeste 0 -- -- 98
2020-11-17 05:00:00 4.2 3 Nordeste 9 Nordeste 0 -- -- 98
2020-11-17 04:00:00 5 8 Nordeste 12 Norte 0 -- -- 98
2020-11-17 03:00:00 4.7 10 Norte 12 Norte 0 -- -- 98
2020-11-17 02:00:00 5.8 2 Nordeste 5 Sudeste 0 -- -- 98
2020-11-17 01:00:00 6.7 4 Nordeste 13 Norte 0 -- -- 96
2020-11-17 00:00:00 6.2 10 Norte 12 Norte 0 -- -- 95
2020-11-16 23:00:00 7 11 Norte 14 Norte 0 -- -- 94
2020-11-16 22:00:00 7.7 10 Norte 11 Norte 0 -- -- 94
2020-11-16 21:00:00 9 6 Nordeste 7 Nordeste 0 -- -- 90
2020-11-16 20:00:00 10 5 Norte 8 Noroeste 0 -- -- 87
2020-11-16 19:00:00 11.1 5 Noroeste 7 Oeste 0 -- -- 82
2020-11-16 18:00:00 13.1 4 Oeste 8 Noroeste 0 -- -- 77
2020-11-16 17:00:00 16.7 4 Noroeste 10 Noroeste 0 -- -- 62
2020-11-16 16:00:00 16.2 4 Norte 12 Oeste 0 -- -- 63
2020-11-16 15:00:00 15.2 9 Oeste 14 Oeste 0 -- -- 67
2020-11-16 14:00:00 15.2 6 Oeste 13 Oeste 0 -- -- 67
2020-11-16 13:00:00 14.6 5 Oeste 18 Noroeste 0 -- -- 68
2020-11-16 12:00:00 14 11 Oeste 17 Oeste 0 -- -- 76
2020-11-16 11:00:00 12.1 8 Noroeste 11 Noroeste 0 -- -- 96
2020-11-16 10:00:00 10.3 0 Calma 8 Norte 0 -- -- 100
2020-11-16 09:00:00 9.5 5 Norte 12 Noroeste 0 -- -- 100
2020-11-16 08:00:00 8 4 Oeste 12 Oeste 0 -- -- 100
2020-11-16 07:00:00 9.8 3 Oeste 6 Oeste 0 -- -- 100
2020-11-16 06:00:00 10.6 4 Sudoeste 14 Sudoeste 0 -- -- 99
2020-11-16 05:00:00 11.3 8 Oeste 12 Oeste 0 -- -- 99
2020-11-16 04:00:00 12 0 Calma 10 Sudoeste 0 -- -- 99
2020-11-16 03:00:00 12 6 Oeste 19 Oeste 0.2 -- -- 99
2020-11-16 02:00:00 12.9 12 Oeste 17 Oeste 0 -- -- 99
2020-11-16 01:00:00 13 6 Sudoeste 12 Sudoeste 0 -- -- 98
2020-11-16 00:00:00 13.4 7 Sudoeste 13 Oeste 0 -- -- 98
2020-11-15 23:00:00 13.4 8 Sudoeste 17 Sudoeste 0.6 -- -- 97
2020-11-15 22:00:00 14.4 13 Sudoeste 17 Sudoeste 0 -- -- 89
2020-11-15 21:00:00 14.1 12 Sudoeste 19 Sudoeste 0 -- -- 90
2020-11-15 20:00:00 14.1 14 Sudoeste 27 Sudoeste 0 -- -- 90
2020-11-15 19:00:00 14.9 22 Sudoeste 34 Sudoeste 0 -- -- 85
2020-11-15 18:00:00 15.8 19 Sudoeste 31 Sudoeste 0 -- -- 82
2020-11-15 17:00:00 16.5 25 Sudoeste 37 Sudoeste 0 -- -- 80
2020-11-15 16:00:00 17 29 Sudoeste 41 Sudoeste 0 -- -- 78
2020-11-15 15:00:00 17.3 30 Sudoeste 49 Sudoeste 0 -- -- 77
2020-11-15 14:00:00 16.8 30 Sudoeste 42 Sudoeste 0 -- -- 79
2020-11-15 13:00:00 16.3 29 Sudoeste 42 Sudoeste 0 -- -- 83
2020-11-15 12:00:00 15.3 23 Sudoeste 33 Sudoeste 0 -- -- 88
2020-11-15 11:00:00 15 23 Sudoeste 34 Sudoeste 0 -- -- 89
2020-11-15 10:00:00 14.2 24 Sudoeste 33 Sudoeste 0 -- -- 92
2020-11-15 09:00:00 12.2 15 Sur 20 Sur 0 -- -- 97
2020-11-15 08:00:00 11.5 5 Sur 17 Sudoeste 0 -- -- 96
2020-11-15 07:00:00 11.9 13 Sudoeste 22 Sudoeste 0 -- -- 96
2020-11-15 06:00:00 11.6 10 Sudoeste 15 Sudoeste 1 -- -- 98
2020-11-15 05:00:00 11.7 7 Sur 16 Sudeste 0.2 -- -- 95
2020-11-15 04:00:00 12 9 Sudoeste 15 Sur 0 -- -- 91
2020-11-15 03:00:00 11.8 7 Sur 14 Sur 0 -- -- 92
2020-11-15 02:00:00 11.8 10 Sur 22 Sudoeste 0 -- -- 90
2020-11-15 01:00:00 12 14 Sudoeste 22 Sudoeste 0 -- -- 90
2020-11-15 00:00:00 11.6 7 Sur 16 Sur 0 -- -- 93
2020-11-14 23:00:00 11 9 Sudoeste 15 Sudoeste 0 -- -- 96
2020-11-14 22:00:00 11.3 10 Sur 18 Sur 0 -- -- 94
2020-11-14 21:00:00 13.1 14 Sudoeste 28 Sur 0 -- -- 89
2020-11-14 20:00:00 12.8 5 Sudoeste 8 Sudoeste 0 -- -- 92
2020-11-14 19:00:00 12.6 5 Sudeste 8 Sudoeste 0 -- -- 91
2020-11-14 18:00:00 13.9 2 Sur 3 Sur 0 -- -- 88
2020-11-14 17:00:00 13.8 7 Sudoeste 19 Oeste 0 -- -- 90
2020-11-14 16:00:00 15.7 8 Sudoeste 13 Sudoeste 0 -- -- 76
2020-11-14 15:00:00 16.4 9 Sudoeste 20 Sudoeste 0 -- -- 74
2020-11-14 14:00:00 16.2 9 Sur 14 Sur 0 -- -- 73
2020-11-14 13:00:00 14.3 4 Sudeste 9 Sudeste 0 -- -- 91
2020-11-14 12:00:00 11.2 4 Este 9 Este 0 -- -- 97
2020-11-14 11:00:00 9.4 7 Este 20 Sudeste 0 -- -- 100
2020-11-14 10:00:00 7.3 12 Este 17 Este 0 -- -- 100
2020-11-14 09:00:00 6.2 7 Este 12 Este 0 -- -- 100
2020-11-14 08:00:00 5.9 6 Este 10 Este 0 -- -- 100
2020-11-14 07:00:00 5.9 5 Sudeste 13 Nordeste 0 -- -- 100
2020-11-14 06:00:00 6 8 Este 13 Este 0 -- -- 100
2020-11-14 05:00:00 6 7 Este 11 Este 0.2 -- -- 100
2020-11-14 04:00:00 6.3 4 Nordeste 12 Este 0 -- -- 100
2020-11-14 03:00:00 6.6 8 Este 10 Este 0 -- -- 100
2020-11-14 02:00:00 6.3 4 Nordeste 6 Nordeste 0 -- -- 100
2020-11-14 01:00:00 6.4 0 Calma 2 Noroeste 0 -- -- 100
2020-11-14 00:00:00 5.9 0 Calma 5 Nordeste 0 -- -- 100
2020-11-13 23:00:00 5.3 6 Nordeste 8 Norte 0 -- -- 100
2020-11-13 22:00:00 5.1 2 Nordeste 8 Nordeste 0 -- -- 100
2020-11-13 21:00:00 6.2 7 Nordeste 14 Nordeste 0 -- -- 100
2020-11-13 20:00:00 6.7 11 Nordeste 13 Norte 0 -- -- 100
2020-11-13 19:00:00 7.5 10 Norte 15 Norte 0 -- -- 97
2020-11-13 18:00:00 9.2 9 Norte 11 Norte 0 -- -- 95
2020-11-13 17:00:00 11 8 Noroeste 11 Noroeste 0 -- -- 96
2020-11-13 16:00:00 9.5 6 Oeste 10 Oeste 0 -- -- 99
2020-11-13 15:00:00 9.8 3 Sudeste 11 Sudeste 0 -- -- 97
2020-11-13 14:00:00 9.1 6 Este 16 Este 0 -- -- 99
2020-11-13 13:00:00 8.3 9 Este 14 Sudeste 0 -- -- 100
2020-11-13 12:00:00 8 8 Sudeste 14 Sudeste 0 -- -- 100
2020-11-13 11:00:00 7 3 Este 7 Este 0 -- -- 100
2020-11-13 10:00:00 6.5 2 Nordeste 4 Nordeste 0 -- -- 100
2020-11-13 09:00:00 6.3 0 Calma 6 Oeste 0 -- -- 100
2020-11-13 08:00:00 6.3 3 Noroeste 12 Oeste 0 -- -- 100
2020-11-13 07:00:00 6.9 4 Oeste 9 Oeste 0.2 -- -- 100
2020-11-13 06:00:00 6.3 3 Oeste 6 Sudoeste 0 -- -- 100
2020-11-13 05:00:00 6.4 3 Sur 15 Nordeste 0 -- -- 100
2020-11-13 04:00:00 6.7 8 Norte 21 Noroeste 0 -- -- 100
2020-11-13 03:00:00 6.9 13 Noroeste 18 Noroeste 0 -- -- 98
2020-11-13 02:00:00 7.5 2 Nordeste 6 Oeste 0 -- -- 98
2020-11-13 01:00:00 7.8 0 Calma 9 Nordeste 0 -- -- 98
2020-11-13 00:00:00 7.9 8 Nordeste 13 Norte 0 -- -- 98
2020-11-12 23:00:00 8.6 10 Norte 16 Nordeste 0 -- -- 98
2020-11-12 22:00:00 8.6 6 Norte 9 Norte 0 -- -- 99
2020-11-12 21:00:00 8.4 8 Norte 12 Norte 0 -- -- 98
2020-11-12 20:00:00 9.1 8 Norte 12 Nordeste 0 -- -- 98
2020-11-12 19:00:00 9.5 8 Norte 10 Norte 0 -- -- 97
2020-11-12 18:00:00 9.8 8 Norte 18 Norte 0 -- -- 96
2020-11-12 17:00:00 10.9 13 Noroeste 20 Noroeste 0 -- -- 92
2020-11-12 16:00:00 13.2 12 Oeste 17 Oeste 0 -- -- 86
2020-11-12 15:00:00 14.7 10 Noroeste 16 Noroeste 0 -- -- 82
2020-11-12 14:00:00 14.4 10 Noroeste 16 Oeste 0 -- -- 80
2020-11-12 13:00:00 14.5 6 Oeste 15 Sudoeste 0 -- -- 79
2020-11-12 12:00:00 13.5 4 Nordeste 8 Nordeste 0 -- -- 76
2020-11-12 11:00:00 10.7 2 Este 6 Este 0 -- -- 90
2020-11-12 10:00:00 6.8 2 Oeste 6 Noroeste 0 -- -- 98
2020-11-12 09:00:00 4.7 4 Norte 10 Nordeste 0 -- -- 100
2020-11-12 08:00:00 4.3 7 Nordeste 10 Norte 0 -- -- 98
2020-11-12 07:00:00 6.1 6 Este 12 Este 0 -- -- 99
2020-11-12 06:00:00 5.6 4 Este 9 Nordeste 0 -- -- 98
2020-11-12 05:00:00 5.7 7 Nordeste 13 Este 0 -- -- 98
2020-11-12 04:00:00 6.8 4 Este 9 Nordeste 0 -- -- 99
2020-11-12 03:00:00 6.5 6 Nordeste 8 Nordeste 0 -- -- 97
2020-11-12 02:00:00 6.9 4 Nordeste 6 Este 0 -- -- 97
2020-11-12 01:00:00 7.8 4 Este 8 Norte 0 -- -- 96
2020-11-12 00:00:00 8.1 4 Nordeste 8 Este 0 -- -- 97
2020-11-11 23:00:00 8.1 4 Este 10 Sudeste 0 -- -- 97
2020-11-11 22:00:00 8 3 Este 5 Este 0 -- -- 97
2020-11-11 21:00:00 7.9 4 Sudeste 12 Este 0 -- -- 97
2020-11-11 20:00:00 7.6 5 Sudeste 8 Sudeste 0 -- -- 97
2020-11-11 19:00:00 8 5 Sudeste 10 Este 0 -- -- 95
2020-11-11 18:00:00 9 6 Este 10 Este 0 -- -- 90
2020-11-11 17:00:00 10 4 Este 8 Este 0 -- -- 87
2020-11-11 16:00:00 10.5 3 Sudeste 6 Sur 0 -- -- 84
2020-11-11 15:00:00 10.6 2 Sudoeste 6 Oeste 0 -- -- 84
2020-11-11 14:00:00 9 2 Oeste 10 Oeste 0 -- -- 92
2020-11-11 13:00:00 8.1 5 Oeste 10 Noroeste 0 -- -- 95
2020-11-11 12:00:00 7.7 3 Sur 11 Sudeste 0 -- -- 97
2020-11-11 11:00:00 7.5 6 Sudeste 13 Este 0 -- -- 98
2020-11-11 10:00:00 7.3 4 Este 10 Este 0 -- -- 99
2020-11-11 09:00:00 7 6 Nordeste 12 Este 0 -- -- 99
2020-11-11 08:00:00 7.1 6 Este 16 Este 0 -- -- 99
2020-11-11 07:00:00 7.3 8 Este 15 Este 0 -- -- 99
2020-11-11 06:00:00 7.6 3 Sudeste 7 Sudeste 0 -- -- 99
2020-11-11 05:00:00 7.4 0 Calma 10 Este 0 -- -- 98
2020-11-11 04:00:00 7.6 3 Sudeste 14 Sudeste 0 -- -- 97
2020-11-11 03:00:00 7.9 6 Sudeste 13 Este 0 -- -- 96
2020-11-11 02:00:00 8 4 Este 12 Sudeste 0 -- -- 94
2020-11-11 01:00:00 8 0 Calma 11 Este 0 -- -- 93
2020-11-11 00:00:00 8.3 3 Este 10 Este 0 -- -- 92
2020-11-10 23:00:00 8.7 4 Nordeste 7 Norte 0 -- -- 92
2020-11-10 22:00:00 8.7 3 Este 13 Este 0 -- -- 92
2020-11-10 21:00:00 9 5 Nordeste 10 Nordeste 0 -- -- 92
2020-11-10 20:00:00 9 5 Nordeste 10 Nordeste 0 -- -- 95
2020-11-10 19:00:00 9.1 0 Calma 7 Norte 0 -- -- 98
2020-11-10 18:00:00 8.8 2 Nordeste 10 Nordeste 0 -- -- 99
2020-11-10 17:00:00 8.6 5 Nordeste 9 Nordeste 0 -- -- 99
2020-11-10 16:00:00 8.9 3 Sudeste 8 Este 0 -- -- 98
2020-11-10 15:00:00 8.8 0 Calma 8 Este 0 -- -- 98
2020-11-10 14:00:00 8.8 5 Sudeste 10 Este 0 -- -- 98
2020-11-10 13:00:00 8.2 3 Sur 6 Sur 0 -- -- 98
2020-11-10 12:00:00 8 3 Sudeste 6 Sudeste 0 -- -- 99
2020-11-10 11:00:00 7.3 2 Norte 6 Sudoeste 0 -- -- 99
2020-11-10 10:00:00 7.1 3 Este 5 Nordeste 0.2 -- -- 99
2020-11-10 09:00:00 6.7 0 Calma 4 Sudeste 0 -- -- 100
2020-11-10 08:00:00 6.4 0 Calma 5 Oeste 0 -- -- 100
2020-11-10 07:00:00 6.7 0 Calma 6 Noroeste 0 -- -- 99
2020-11-10 06:00:00 7.1 0 Calma 7 Oeste 0 -- -- 99
2020-11-10 05:00:00 7.6 5 Oeste 9 Oeste 0 -- -- 99
2020-11-10 04:00:00 7.9 3 Noroeste 5 Oeste 0 -- -- 99
2020-11-10 03:00:00 7.1 0 Calma 5 Norte 0 -- -- 99
2020-11-10 02:00:00 6.4 3 Nordeste 9 Norte 0 -- -- 98
2020-11-10 01:00:00 6.5 2 Nordeste 6 Norte 0 -- -- 97
2020-11-10 00:00:00 6.9 7 Norte 10 Norte 0 -- -- 97
2020-11-09 23:00:00 8.1 0 Calma 7 Norte 0 -- -- 97
2020-11-09 22:00:00 8.8 3 Oeste 8 Sudoeste 0 -- -- 95
2020-11-09 21:00:00 10.3 4 Sudoeste 6 Sur 0 -- -- 90
2020-11-09 20:00:00 10.7 2 Sudoeste 5 Sudoeste 0 -- -- 88
2020-11-09 19:00:00 11 2 Sudoeste 7 Sudoeste 0 -- -- 86
2020-11-09 18:00:00 12.2 5 Oeste 10 Oeste 0 -- -- 83
2020-11-09 17:00:00 13.3 7 Oeste 23 Oeste 0 -- -- 75
2020-11-09 16:00:00 15 10 Sudoeste 18 Sudoeste 0 -- -- 71
2020-11-09 15:00:00 13.9 12 Oeste 19 Oeste 0 -- -- 75
2020-11-09 14:00:00 14 7 Oeste 23 Sudoeste 0 -- -- 77
2020-11-09 13:00:00 14.9 12 Sur 19 Sudoeste 0 -- -- 71
2020-11-09 12:00:00 12.9 9 Sudoeste 15 Sudoeste 0 -- -- 82
2020-11-09 11:00:00 11.3 13 Oeste 20 Oeste 0 -- -- 95
2020-11-09 10:00:00 10.5 3 Sur 10 Sudeste 0 -- -- 98
2020-11-09 09:00:00 9.7 6 Sudeste 10 Sudeste 0 -- -- 100
2020-11-09 08:00:00 9.1 3 Sudeste 8 Sudeste 0.2 -- -- 99
2020-11-09 07:00:00 9.4 0 Calma 4 Oeste 0.4 -- -- 99
2020-11-09 06:00:00 9.1 3 Oeste 8 Oeste 0 -- -- 99
2020-11-09 05:00:00 9 3 Sudeste 13 Sudeste 0.2 -- -- 99
2020-11-09 04:00:00 9.3 6 Sudeste 9 Sudeste 0 -- -- 99
2020-11-09 03:00:00 9.7 3 Este 8 Este 0 -- -- 99
2020-11-09 02:00:00 9.8 6 Sudeste 9 Este 1.8 -- -- 99
2020-11-09 01:00:00 9.8 2 Este 9 Sudeste 1.6 -- -- 98
2020-11-09 00:00:00 9.8 4 Sudeste 10 Sudeste 0.6 -- -- 98
2020-11-08 23:00:00 9.8 8 Sudeste 13 Sudeste 1.6 -- -- 98
2020-11-08 22:00:00 9.9 8 Sur 17 Sudeste 1.6 -- -- 97
2020-11-08 21:00:00 10.1 10 Sudeste 15 Sudeste 0.8 -- -- 97
2020-11-08 20:00:00 10.3 5 Sudeste 17 Sudoeste 1.4 -- -- 96
2020-11-08 19:00:00 10.6 12 Sur 21 Sur 0.4 -- -- 94
2020-11-08 18:00:00 10.5 5 Sudeste 22 Sur 0 -- -- 91
2020-11-08 17:00:00 10.8 13 Sur 50 Sudoeste 1 -- -- 89
2020-11-08 16:00:00 13 19 Sudoeste 41 Sur 0.2 -- -- 88
2020-11-08 15:00:00 12.9 23 Sur 39 Sur 0.4 -- -- 86
2020-11-08 14:00:00 12.6 22 Sudoeste 40 Sudoeste 0.4 -- -- 86
2020-11-08 13:00:00 14.6 20 Sudoeste 32 Sudoeste 0 -- -- 71
2020-11-08 12:00:00 14.3 12 Sudeste 22 Sudeste 0 -- -- 70
2020-11-08 11:00:00 12.6 13 Sudeste 20 Sudeste 0 -- -- 77
2020-11-08 10:00:00 9.5 11 Sudeste 20 Este 0 -- -- 88
2020-11-08 09:00:00 7.3 10 Este 17 Este 0 -- -- 94
2020-11-08 08:00:00 6.8 13 Sudeste 19 Sudeste 0 -- -- 95
2020-11-08 07:00:00 6.7 6 Sudeste 15 Este 0 -- -- 94
2020-11-08 06:00:00 7.6 10 Este 16 Este 0 -- -- 92
2020-11-08 05:00:00 8.1 10 Sudeste 21 Este 0 -- -- 92
2020-11-08 04:00:00 8.1 11 Este 18 Este 0 -- -- 92
2020-11-08 03:00:00 8.6 7 Sudeste 18 Este 0 -- -- 90
2020-11-08 02:00:00 8.5 10 Este 14 Este 0 -- -- 92
2020-11-08 01:00:00 8.2 5 Este 12 Este 0 -- -- 93
2020-11-08 00:00:00 7.8 6 Sudeste 13 Sudeste 0 -- -- 94
2020-11-07 23:00:00 9 9 Sudeste 14 Sudeste 0 -- -- 91
2020-11-07 22:00:00 9.5 9 Sudeste 20 Sur 0 -- -- 89
2020-11-07 21:00:00 10.2 14 Sur 22 Sur 0 -- -- 86
2020-11-07 20:00:00 10.5 10 Sur 18 Sur 0 -- -- 87
2020-11-07 19:00:00 11.3 10 Sudoeste 24 Sudoeste 0 -- -- 79
2020-11-07 18:00:00 13.2 18 Sudoeste 35 Sudoeste 0 -- -- 69
2020-11-07 17:00:00 15 27 Sudoeste 40 Oeste 0 -- -- 66
2020-11-07 16:00:00 17 17 Sudoeste 28 Sudoeste 0 -- -- 63
2020-11-07 15:00:00 15.4 21 Sudoeste 33 Sudoeste 0 -- -- 69
2020-11-07 14:00:00 15.2 25 Sudoeste 36 Sudoeste 0 -- -- 69
2020-11-07 13:00:00 14.5 27 Sudoeste 37 Sudoeste 0 -- -- 74
2020-11-07 12:00:00 13.2 18 Sudoeste 27 Sudoeste 0.4 -- -- 86
2020-11-07 11:00:00 12.2 15 Sudoeste 22 Sudoeste 0 -- -- 88
2020-11-07 10:00:00 11.8 7 Sudoeste 12 Sudoeste 0 -- -- 91
2020-11-07 09:00:00 10.4 5 Sur 12 Sudeste 0 -- -- 96
2020-11-07 08:00:00 10 6 Sudeste 9 Sudeste 0 -- -- 94
2020-11-07 07:00:00 10.3 6 Sudeste 13 Sur 0 -- -- 95
2020-11-07 06:00:00 10.6 4 Sudeste 18 Sur 0.8 -- -- 94
2020-11-07 05:00:00 10.6 6 Sudeste 13 Sudeste 0 -- -- 95
2020-11-07 04:00:00 10.7 8 Sudeste 14 Este 0 -- -- 95
2020-11-07 03:00:00 10.8 13 Este 19 Este 0.2 -- -- 94
2020-11-07 02:00:00 10.7 4 Este 14 Este 0.8 -- -- 96
2020-11-07 01:00:00 10.4 4 Nordeste 7 Este 0 -- -- 96
2020-11-07 00:00:00 10.6 3 Este 20 Sudoeste 1 -- -- 96
2020-11-06 23:00:00 11.7 13 Sudoeste 22 Sur 0.4 -- -- 93
2020-11-06 22:00:00 12 15 Sur 35 Este 0 -- -- 89
2020-11-06 21:00:00 11.7 24 Este 37 Este 3.6 -- -- 92
2020-11-06 20:00:00 12.5 17 Sudoeste 36 Sudoeste 0.4 -- -- 89
2020-11-06 19:00:00 15.5 13 Sudeste 25 Sudeste 0 -- -- 78
2020-11-06 18:00:00 16.1 17 Sudeste 34 Este 0 -- -- 76
2020-11-06 17:00:00 17.1 28 Este 48 Sudeste 0 -- -- 71
2020-11-06 16:00:00 17.2 24 Sudeste 41 Sudeste 0 -- -- 72
2020-11-06 15:00:00 16.9 25 Este 39 Este 0 -- -- 73
2020-11-06 14:00:00 14.6 24 Este 43 Este 0 -- -- 79
2020-11-06 13:00:00 14 29 Este 39 Este 0 -- -- 79
2020-11-06 12:00:00 13.5 16 Este 33 Este 0 -- -- 80
2020-11-06 11:00:00 13.5 22 Este 29 Este 0 -- -- 80
2020-11-06 10:00:00 12.2 19 Este 36 Este 0 -- -- 85
2020-11-06 09:00:00 11.5 22 Este 35 Este 0 -- -- 87
2020-11-06 08:00:00 11.7 22 Sudeste 35 Sudeste 0 -- -- 83
2020-11-06 07:00:00 11.5 23 Sudeste 36 Este 0 -- -- 84
2020-11-06 06:00:00 9.5 6 Nordeste 14 Noroeste 0 -- -- 92
2020-11-06 05:00:00 9.7 4 Oeste 41 Este 0 -- -- 92
2020-11-06 04:00:00 10.7 27 Este 39 Este 0 -- -- 88
2020-11-06 03:00:00 10.4 26 Este 39 Este 0 -- -- 89
2020-11-06 02:00:00 10.1 24 Este 37 Este 0 -- -- 89
2020-11-06 01:00:00 9.8 24 Este 34 Este 0 -- -- 91
2020-11-06 00:00:00 9.9 22 Este 28 Este 0 -- -- 93
2020-11-05 23:00:00 10.2 21 Este 28 Nordeste 0.4 -- -- 96
2020-11-05 22:00:00 10.4 15 Este 39 Sur 2.6 -- -- 96
2020-11-05 21:00:00 10.9 20 Este 45 Este 0.4 -- -- 90
2020-11-05 20:00:00 11.1 23 Este 37 Este 0 -- -- 89
2020-11-05 19:00:00 11.3 27 Este 35 Este 0.2 -- -- 87
2020-11-05 18:00:00 11.8 26 Este 36 Este 0.2 -- -- 84
2020-11-05 17:00:00 12.3 27 Este 36 Este 0 -- -- 79
2020-11-05 16:00:00 12.3 29 Este 39 Este 0 -- -- 80
2020-11-05 15:00:00 12.8 30 Este 42 Este 0 -- -- 76
2020-11-05 14:00:00 12.3 24 Este 42 Este 0 -- -- 77
2020-11-05 13:00:00 12 28 Este 49 Este 0 -- -- 77
2020-11-05 12:00:00 11.4 35 Este 49 Este 0 -- -- 77
2020-11-05 11:00:00 10.3 35 Nordeste 46 Nordeste 0 -- -- 81
2020-11-05 10:00:00 9.2 34 Nordeste 49 Este 0 -- -- 84
2020-11-05 09:00:00 9 34 Nordeste 55 Nordeste 0 -- -- 83
2020-11-05 08:00:00 8.6 35 Este 53 Este 0 -- -- 84
2020-11-05 07:00:00 8.4 41 Nordeste 57 Nordeste 0 -- -- 85
2020-11-05 06:00:00 7.8 40 Nordeste 53 Nordeste 0 -- -- 86
2020-11-05 05:00:00 7.2 37 Nordeste 62 Nordeste 0 -- -- 87
2020-11-05 04:00:00 7.2 44 Nordeste 59 Nordeste 0 -- -- 86
2020-11-05 03:00:00 7.3 41 Nordeste 55 Nordeste 0 -- -- 85
2020-11-05 02:00:00 6.3 41 Nordeste 55 Nordeste 0 -- -- 86
2020-11-05 01:00:00 5.9 41 Nordeste 57 Nordeste 0 -- -- 85
2020-11-05 00:00:00 5.9 41 Nordeste 53 Nordeste 0 -- -- 85
2020-11-04 23:00:00 6.1 42 Nordeste 62 Nordeste 0 -- -- 83
2020-11-04 22:00:00 6.5 49 Nordeste 66 Nordeste 0 -- -- 81
2020-11-04 21:00:00 6.3 47 Nordeste 63 Nordeste 0 -- -- 83
2020-11-04 20:00:00 6.6 43 Nordeste 59 Nordeste 0 -- -- 81
2020-11-04 19:00:00 6.9 36 Nordeste 49 Nordeste 0.2 -- -- 81
2020-11-04 18:00:00 6.5 23 Nordeste 45 Nordeste 0.6 -- -- 87
2020-11-04 17:00:00 7.3 30 Nordeste 50 Nordeste 0.8 -- -- 79
2020-11-04 16:00:00 9.2 28 Nordeste 46 Nordeste 0 -- -- 64
2020-11-04 15:00:00 9.8 35 Nordeste 48 Nordeste 0 -- -- 62
2020-11-04 14:00:00 10.5 36 Nordeste 50 Nordeste 0 -- -- 57
2020-11-04 13:00:00 10.6 35 Nordeste 50 Nordeste 0 -- -- 57
2020-11-04 12:00:00 9.6 35 Nordeste 46 Nordeste 0 -- -- 63
2020-11-04 11:00:00 8 33 Nordeste 50 Nordeste 0 -- -- 68
2020-11-04 10:00:00 6.6 30 Nordeste 42 Nordeste 0 -- -- 76
2020-11-04 09:00:00 5.3 24 Nordeste 30 Nordeste 0 -- -- 82
2020-11-04 08:00:00 2.7 14 Nordeste 27 Nordeste 0 -- -- 88
2020-11-04 07:00:00 2.9 19 Nordeste 26 Nordeste 0 -- -- 88
2020-11-04 06:00:00 2.4 13 Nordeste 25 Norte 0 -- -- 93
2020-11-04 05:00:00 3.2 11 Norte 19 Nordeste 0 -- -- 91
2020-11-04 04:00:00 2.8 7 Nordeste 17 Nordeste 0 -- -- 91
2020-11-04 03:00:00 3.3 13 Nordeste 18 Norte 0 -- -- 91
2020-11-04 02:00:00 3.6 0 Calma 22 Nordeste 0 -- -- 88
2020-11-04 01:00:00 4.2 16 Nordeste 27 Nordeste 0 -- -- 87
2020-11-04 00:00:00 4.3 17 Nordeste 24 Nordeste 0 -- -- 87
2020-11-03 23:00:00 5.1 17 Nordeste 22 Nordeste 0 -- -- 85
2020-11-03 22:00:00 6 17 Nordeste 30 Nordeste 0 -- -- 82
2020-11-03 21:00:00 6.9 23 Nordeste 35 Nordeste 0 -- -- 78
2020-11-03 20:00:00 8.6 20 Nordeste 31 Nordeste 0 -- -- 77
2020-11-03 19:00:00 9.8 15 Nordeste 29 Nordeste 0 -- -- 71
2020-11-03 18:00:00 11.7 23 Nordeste 37 Nordeste 0 -- -- 63
2020-11-03 17:00:00 13.5 26 Nordeste 38 Nordeste 0 -- -- 57
2020-11-03 16:00:00 14.1 25 Nordeste 35 Nordeste 0 -- -- 57
2020-11-03 15:00:00 15.5 23 Nordeste 35 Nordeste 0 -- -- 49
2020-11-03 14:00:00 15.5 24 Nordeste 37 Nordeste 0 -- -- 48
2020-11-03 13:00:00 15.2 20 Nordeste 31 Nordeste 0 -- -- 56
2020-11-03 12:00:00 13.1 16 Norte 24 Nordeste 0 -- -- 70
2020-11-03 11:00:00 12.5 5 Nordeste 22 Norte 0 -- -- 75
2020-11-03 10:00:00 10.5 14 Norte 29 Norte 0 -- -- 81
2020-11-03 09:00:00 8.8 18 Norte 31 Norte 0 -- -- 80
2020-11-03 08:00:00 8.6 15 Norte 31 Norte 0 -- -- 87
2020-11-03 07:00:00 9 21 Norte 36 Noroeste 0 -- -- 90
2020-11-03 06:00:00 9.5 26 Norte 37 Norte 0 -- -- 86
2020-11-03 05:00:00 10.1 22 Norte 31 Noroeste 0 -- -- 80
2020-11-03 04:00:00 11 15 Noroeste 26 Norte 0 -- -- 77
2020-11-03 03:00:00 11.8 19 Norte 31 Norte 0 -- -- 77
2020-11-03 02:00:00 13.6 11 Norte 19 Norte 0 -- -- 88
2020-11-03 01:00:00 14.3 5 Oeste 11 Oeste 0 -- -- 91
2020-11-03 00:00:00 14.3 4 Sudoeste 6 Sur 0 -- -- 88
2020-11-02 23:00:00 14.3 4 Sur 6 Sur 0 -- -- 88
2020-11-02 22:00:00 14.4 5 Sur 8 Sudeste 0 -- -- 88
2020-11-02 21:00:00 15 3 Sudoeste 7 Sudoeste 0 -- -- 85
2020-11-02 20:00:00 15.1 4 Sudoeste 7 Sur 0 -- -- 84
2020-11-02 19:00:00 15.6 4 Sudoeste 8 Sudoeste 0 -- -- 83
2020-11-02 18:00:00 16.9 6 Sudoeste 12 Oeste 0 -- -- 77
2020-11-02 17:00:00 18.5 8 Oeste 15 Sudoeste 0 -- -- 69
2020-11-02 16:00:00 18.9 8 Sudoeste 17 Sur 0 -- -- 67
2020-11-02 15:00:00 19.2 9 Sur 17 Sudoeste 0 -- -- 67
2020-11-02 14:00:00 19.7 10 Sudoeste 21 Sur 0 -- -- 65
2020-11-02 13:00:00 19.2 11 Sudoeste 22 Sudoeste 0 -- -- 69
2020-11-02 12:00:00 18.6 13 Sudoeste 19 Sudoeste 0 -- -- 73
2020-11-02 11:00:00 15.8 0 Calma 12 Sur 0 -- -- 84
2020-11-02 10:00:00 11.1 0 Calma 5 Sudoeste 0 -- -- 100
2020-11-02 09:00:00 10.1 2 Sudoeste 6 Sur 0 -- -- 99
2020-11-02 08:00:00 10.1 5 Sur 9 Sudeste 0 -- -- 99
2020-11-02 07:00:00 10.6 7 Sudeste 8 Sudeste 0 -- -- 98
2020-11-02 06:00:00 11.3 3 Sur 9 Sur 0 -- -- 98
2020-11-02 05:00:00 12.1 7 Sudoeste 16 Sudoeste 0 -- -- 97
2020-11-02 04:00:00 12.8 14 Sudoeste 23 Oeste 0 -- -- 98
2020-11-02 03:00:00 12.8 13 Oeste 21 Sudoeste 0 -- -- 97
2020-11-02 02:00:00 13.2 12 Sudoeste 17 Sudoeste 0 -- -- 95
2020-11-02 01:00:00 13.2 5 Sudoeste 11 Sudoeste 0 -- -- 94
2020-11-02 00:00:00 13.2 4 Sur 5 Sur 0 -- -- 93
2020-11-01 23:00:00 13.3 0 Calma 5 Oeste 0 -- -- 93
2020-11-01 22:00:00 13.7 5 Oeste 9 Oeste 0 -- -- 91
2020-11-01 21:00:00 14.1 2 Norte 11 Oeste 0 -- -- 88
2020-11-01 20:00:00 14.9 2 Oeste 9 Oeste 0 -- -- 86
2020-11-01 19:00:00 15.9 8 Oeste 11 Sudoeste 0 -- -- 81
2020-11-01 18:00:00 17 7 Oeste 15 Oeste 0 -- -- 75
2020-11-01 17:00:00 18.2 10 Oeste 17 Oeste 0 -- -- 69
2020-11-01 16:00:00 19 11 Oeste 21 Oeste 0 -- -- 68
2020-11-01 15:00:00 20.3 12 Oeste 20 Sudoeste 0 -- -- 63
2020-11-01 14:00:00 19.3 4 Sur 15 Oeste 0 -- -- 70
2020-11-01 13:00:00 17.2 4 Sur 9 Sudeste 0 -- -- 76
2020-11-01 12:00:00 13.4 4 Sudeste 10 Este 0 -- -- 96
2020-11-01 11:00:00 11.1 0 Calma 12 Sudeste 0 -- -- 98
2020-11-01 10:00:00 9.9 6 Sudeste 11 Sudeste 0 -- -- 99
2020-11-01 09:00:00 9.1 5 Sudeste 11 Este 0 -- -- 99
2020-11-01 08:00:00 8.4 3 Este 8 Este 0 -- -- 99
2020-11-01 07:00:00 6.6 6 Nordeste 9 Nordeste 0 -- -- 99
2020-11-01 06:00:00 7.2 7 Nordeste 9 Nordeste 0 -- -- 98
2020-11-01 05:00:00 8.2 5 Este 10 Sudeste 0 -- -- 98
2020-11-01 04:00:00 8.2 5 Sudeste 12 Norte 0 -- -- 98
2020-11-01 03:00:00 9 6 Este 8 Este 0 -- -- 98
2020-11-01 02:00:00 8.5 4 Nordeste 8 Nordeste 0 -- -- 96
2020-11-01 01:00:00 10 2 Este 8 Sudeste 0 -- -- 97
2020-11-01 00:00:00 10.1 4 Sudeste 6 Sudeste 0 -- -- 95
2020-10-31 23:00:00 11 2 Sur 6 Sudeste 0 -- -- 94
2020-10-31 22:00:00 10.8 0 Calma 10 Noroeste 0 -- -- 90
2020-10-31 21:00:00 11.8 6 Noroeste 11 Oeste 0 -- -- 89
2020-10-31 20:00:00 12.1 9 Noroeste 10 Oeste 0 -- -- 89
2020-10-31 19:00:00 14.2 9 Noroeste 13 Oeste 0 -- -- 83
2020-10-31 18:00:00 17.7 7 Oeste 19 Oeste 0 -- -- 70
2020-10-31 17:00:00 20.1 15 Oeste 23 Oeste 0 -- -- 61
2020-10-31 16:00:00 20.2 15 Sudoeste 23 Oeste 0 -- -- 60
2020-10-31 15:00:00 20.7 14 Oeste 24 Oeste 0 -- -- 60
2020-10-31 14:00:00 20.2 4 Sudoeste 11 Sudoeste 0 -- -- 61
2020-10-31 13:00:00 16.7 6 Sudoeste 14 Sur 0 -- -- 73
2020-10-31 12:00:00 16.7 6 Sudoeste 12 Sudoeste 0 -- -- 72
2020-10-31 11:00:00 13.7 4 Sur 12 Sudeste 0 -- -- 78
2020-10-31 10:00:00 10.1 7 Este 13 Este 0 -- -- 94
2020-10-31 09:00:00 7.1 8 Este 17 Este 0 -- -- 99
2020-10-31 08:00:00 4.2 6 Nordeste 9 Nordeste 0 -- -- 98
2020-10-31 07:00:00 5.8 5 Este 9 Este 0 -- -- 98
2020-10-31 06:00:00 6.6 6 Este 10 Este 0 -- -- 99
2020-10-31 05:00:00 6.1 7 Nordeste 10 Este 0 -- -- 97
2020-10-31 04:00:00 6 0 Calma 9 Este 0 -- -- 97
2020-10-31 03:00:00 6.5 6 Este 9 Este 0 -- -- 96
2020-10-31 02:00:00 7.1 6 Nordeste 8 Nordeste 0 -- -- 95
2020-10-31 01:00:00 8.2 4 Nordeste 7 Nordeste 0 -- -- 93
2020-10-31 00:00:00 9.8 2 Este 7 Este 0 -- -- 93
2020-10-30 23:00:00 9.5 3 Nordeste 7 Nordeste 0 -- -- 91
2020-10-30 22:00:00 10.1 2 Este 8 Nordeste 0 -- -- 91
2020-10-30 21:00:00 10.7 7 Norte 12 Nordeste 0 -- -- 91
2020-10-30 20:00:00 12.3 7 Norte 10 Norte 0 -- -- 85
2020-10-30 19:00:00 14.5 5 Nordeste 8 Este 0 -- -- 74
2020-10-30 18:00:00 18.9 6 Este 10 Este 0 -- -- 60
2020-10-30 17:00:00 21.5 5 Sudeste 9 Sudeste 0 -- -- 51
2020-10-30 16:00:00 21.8 5 Sudeste 12 Sudeste 0 -- -- 50
2020-10-30 15:00:00 20.2 5 Sudeste 9 Sudeste 0 -- -- 54
2020-10-30 14:00:00 19.3 3 Nordeste 8 Sudeste 0 -- -- 58
2020-10-30 13:00:00 16.4 4 Sudeste 9 Sudeste 0 -- -- 68
2020-10-30 12:00:00 11.3 3 Sur 9 Sudeste 0 -- -- 94
2020-10-30 11:00:00 7.9 2 Este 5 Este 0 -- -- 97
2020-10-30 10:00:00 5.5 3 Este 7 Este 0 -- -- 98
2020-10-30 09:00:00 4.1 5 Este 12 Este 0.2 -- -- 99
2020-10-30 08:00:00 3.1 0 Calma 4 Este 0 -- -- 99
2020-10-30 07:00:00 3.2 0 Calma 5 Nordeste 0 -- -- 99
2020-10-30 06:00:00 4 3 Norte 5 Nordeste 0 -- -- 98
2020-10-30 05:00:00 3.9 3 Nordeste 6 Norte 0 -- -- 98
2020-10-30 04:00:00 5.2 5 Nordeste 8 Norte 0 -- -- 97
2020-10-30 03:00:00 5.5 6 Norte 10 Norte 0 -- -- 97
2020-10-30 02:00:00 5.2 7 Norte 9 Norte 0 -- -- 96
2020-10-30 01:00:00 6 6 Norte 9 Nordeste 0 -- -- 96
2020-10-30 00:00:00 6.9 4 Nordeste 14 Norte 0 -- -- 94
2020-10-29 23:00:00 7.5 12 Norte 18 Norte 0 -- -- 94
2020-10-29 22:00:00 8.1 15 Norte 18 Norte 0 -- -- 92
2020-10-29 21:00:00 8.7 13 Norte 17 Norte 0 -- -- 91
2020-10-29 20:00:00 9.5 12 Nordeste 14 Nordeste 0 -- -- 89
2020-10-29 19:00:00 10.9 9 Norte 13 Norte 0 -- -- 85
2020-10-29 18:00:00 15.5 3 Norte 4 Noroeste 0 -- -- 64
2020-10-29 17:00:00 17.4 4 Oeste 8 Sudoeste 0 -- -- 58
2020-10-29 16:00:00 17 6 Sudoeste 11 Sudoeste 0 -- -- 59
2020-10-29 15:00:00 17.8 3 Sudoeste 10 Sudoeste 0 -- -- 56
2020-10-29 14:00:00 16 6 Sudoeste 11 Sudoeste 0 -- -- 61
2020-10-29 13:00:00 16 3 Sudoeste 9 Sur 0 -- -- 63
2020-10-29 12:00:00 12.3 0 Calma 6 Nordeste 0 -- -- 93
2020-10-29 11:00:00 9.7 2 Norte 8 Nordeste 0 -- -- 98
2020-10-29 10:00:00 7.8 6 Nordeste 9 Nordeste 0 -- -- 99
2020-10-29 09:00:00 6.4 0 Calma 4 Nordeste 0 -- -- 99
2020-10-29 08:00:00 4.5 5 Nordeste 11 Norte 0 -- -- 100
2020-10-29 07:00:00 3.9 9 Nordeste 10 Nordeste 0 -- -- 99
2020-10-29 06:00:00 4 4 Nordeste 13 Norte 0 -- -- 99
2020-10-29 05:00:00 4.1 10 Nordeste 12 Nordeste 0 -- -- 99
2020-10-29 04:00:00 4.2 7 Nordeste 8 Nordeste 0 -- -- 98
2020-10-29 03:00:00 6.2 4 Este 9 Este 0 -- -- 98
2020-10-29 02:00:00 5 4 Nordeste 8 Norte 0 -- -- 97
2020-10-29 01:00:00 6.6 5 Norte 8 Norte 0 -- -- 97
2020-10-29 00:00:00 7.6 0 Calma 5 Oeste 0 -- -- 97
2020-10-28 23:00:00 8.5 3 Sudoeste 5 Sudoeste 0 -- -- 95
2020-10-28 22:00:00 8.5 3 Sur 11 Oeste 0 -- -- 93
2020-10-28 21:00:00 10.3 9 Oeste 14 Oeste 0 -- -- 85
2020-10-28 20:00:00 10.4 7 Oeste 16 Oeste 0 -- -- 88
2020-10-28 19:00:00 12.2 10 Oeste 22 Sudoeste 0 -- -- 85
2020-10-28 18:00:00 14.7 10 Oeste 24 Oeste 0 -- -- 79
2020-10-28 17:00:00 15.6 18 Oeste 25 Sudoeste 0 -- -- 74
2020-10-28 16:00:00 15.5 15 Oeste 28 Sudoeste 0 -- -- 76
2020-10-28 15:00:00 16.3 16 Sudoeste 25 Sudoeste 0 -- -- 74
2020-10-28 14:00:00 15.6 17 Sudoeste 24 Sudoeste 0 -- -- 76
2020-10-28 13:00:00 14.7 15 Oeste 21 Oeste 0 -- -- 82
2020-10-28 12:00:00 14.2 10 Sudoeste 19 Sudoeste 0 -- -- 85
2020-10-28 11:00:00 12.8 14 Sudoeste 20 Sudoeste 0 -- -- 92
2020-10-28 10:00:00 12.1 13 Sudoeste 17 Sudoeste 0 -- -- 97
2020-10-28 09:00:00 11.6 9 Sudoeste 14 Sudoeste 0 -- -- 96
2020-10-28 08:00:00 11.3 11 Sudoeste 17 Sudoeste 0 -- -- 96
2020-10-28 07:00:00 11.3 7 Sudoeste 10 Sudoeste 0 -- -- 97
2020-10-28 06:00:00 11 6 Sudoeste 12 Sur 0 -- -- 97
2020-10-28 05:00:00 10.7 8 Sur 16 Sur 0 -- -- 97
2020-10-28 04:00:00 10.4 7 Sur 11 Sur 0.2 -- -- 97
2020-10-28 03:00:00 10.3 6 Sudoeste 19 Sudoeste 0 -- -- 96
2020-10-28 02:00:00 10.6 12 Sur 21 Sur 0 -- -- 92
2020-10-28 01:00:00 10.5 12 Sur 17 Sur 0 -- -- 91
2020-10-28 00:00:00 10.3 12 Sur 22 Sur 0 -- -- 89